createdAt,value
2022-10-01T00:00:56.596Z,21.90
2022-10-01T00:05:10.978Z,21.30
2022-10-01T00:09:13.073Z,21.60
2022-10-01T00:13:15.172Z,22.50
2022-10-01T00:17:17.413Z,21.70
2022-10-01T00:21:26.585Z,20.30
2022-10-01T00:25:28.663Z,23.00
2022-10-01T00:29:31.486Z,20.10
2022-10-01T00:33:34.163Z,21.10
2022-10-01T00:37:37.367Z,20.60
2022-10-01T00:41:40.305Z,20.60
2022-10-01T00:45:42.419Z,21.10
2022-10-01T00:49:46.878Z,21.30
2022-10-01T00:53:48.953Z,21.20
2022-10-01T00:57:51.998Z,20.80
2022-10-01T01:01:54.433Z,21.70
2022-10-01T01:05:56.945Z,21.90
2022-10-01T01:10:00.453Z,20.50
2022-10-01T01:14:22.571Z,21.60
2022-10-01T01:18:40.807Z,21.00
2022-10-01T01:22:54.342Z,21.30
2022-10-01T01:27:05.929Z,20.30
2022-10-01T01:31:14.045Z,21.50
2022-10-01T01:35:40.563Z,24.30
2022-10-01T01:39:49.854Z,23.20
2022-10-01T01:43:56.086Z,23.10
2022-10-01T01:48:01.809Z,22.10
2022-10-01T01:52:13.042Z,23.70
2022-10-01T01:56:16.861Z,22.40
2022-10-01T02:00:19.062Z,21.50
2022-10-01T02:04:39.536Z,21.60
2022-10-01T02:08:51.754Z,20.40
2022-10-01T02:13:03.545Z,20.40
2022-10-01T02:17:37.003Z,20.10
2022-10-01T02:22:01.014Z,20.50
2022-10-01T02:26:16.220Z,19.90
2022-10-01T02:30:18.763Z,16.80
2022-10-01T02:34:27.929Z,16.30
2022-10-01T02:38:31.537Z,18.80
2022-10-01T02:42:36.600Z,16.20
2022-10-01T02:47:07.268Z,17.70
2022-10-01T02:51:28.531Z,16.90
2022-10-01T02:55:41.774Z,16.20
2022-10-01T02:59:44.326Z,16.10
2022-10-01T03:03:46.619Z,16.00
2022-10-01T03:07:48.802Z,17.00
2022-10-01T03:11:50.881Z,14.10
2022-10-01T03:15:52.984Z,17.00
2022-10-01T03:19:55.332Z,19.40
2022-10-01T03:23:57.511Z,19.00
2022-10-01T03:27:59.646Z,19.00
2022-10-01T03:32:01.908Z,17.90
2022-10-01T03:36:05.034Z,19.20
2022-10-01T03:40:07.917Z,18.50
2022-10-01T03:44:10.157Z,19.00
2022-10-01T03:48:12.236Z,20.90
2022-10-01T03:52:14.243Z,17.00
2022-10-01T03:56:18.035Z,15.50
2022-10-01T04:00:20.506Z,15.50
2022-10-01T04:04:22.619Z,15.00
2022-10-01T04:08:25.007Z,14.90
2022-10-01T04:12:27.596Z,17.40
2022-10-01T04:16:29.711Z,17.10
2022-10-01T04:20:33.555Z,15.70
2022-10-01T04:24:35.596Z,16.10
2022-10-01T04:28:37.717Z,17.20
2022-10-01T04:32:39.778Z,16.60
2022-10-01T04:36:42.379Z,17.50
2022-10-01T04:40:44.503Z,16.30
2022-10-01T04:44:47.085Z,16.80
2022-10-01T04:48:49.218Z,18.00
2022-10-01T04:52:52.270Z,16.00
2022-10-01T04:56:54.303Z,17.00
2022-10-01T05:01:01.052Z,17.20
2022-10-01T05:05:06.483Z,15.00
2022-10-01T05:09:08.534Z,17.00
2022-10-01T05:13:11.608Z,19.30
2022-10-01T05:17:18.058Z,17.30
2022-10-01T05:21:20.480Z,17.80
2022-10-01T05:25:23.117Z,18.10
2022-10-01T05:29:25.258Z,17.30
2022-10-01T05:33:29.213Z,20.90
2022-10-01T05:37:31.610Z,21.00
2022-10-01T05:41:34.051Z,25.50
2022-10-01T05:45:36.415Z,26.00
2022-10-01T05:49:42.824Z,21.90
2022-10-01T05:53:50.532Z,19.70
2022-10-01T05:57:54.799Z,16.30
2022-10-01T06:01:56.939Z,16.90
2022-10-01T06:05:59.543Z,16.50
2022-10-01T06:10:01.591Z,18.60
2022-10-01T06:14:03.694Z,20.00
2022-10-01T06:18:09.949Z,19.10
2022-10-01T06:22:11.967Z,17.10
2022-10-01T06:26:14.015Z,16.90
2022-10-01T06:30:16.048Z,18.10
2022-10-01T06:34:18.088Z,17.90
2022-10-01T06:38:21.891Z,16.50
2022-10-01T06:42:24.435Z,16.30
2022-10-01T06:46:28.450Z,17.00
2022-10-01T06:50:31.838Z,16.90
2022-10-01T06:54:33.813Z,17.00
2022-10-01T06:58:36.933Z,16.20
2022-10-01T07:02:39.521Z,16.30
2022-10-01T07:06:41.903Z,17.30
2022-10-01T07:10:45.604Z,17.50
2022-10-01T07:14:47.662Z,18.80
2022-10-01T07:18:49.672Z,16.80
2022-10-01T07:22:58.135Z,17.90
2022-10-01T07:27:03.785Z,15.90
2022-10-01T07:31:10.970Z,17.40
2022-10-01T07:35:14.527Z,19.70
2022-10-01T07:39:16.773Z,16.80
2022-10-01T07:43:18.834Z,15.30
2022-10-01T07:47:21.852Z,14.20
2022-10-01T07:51:26.317Z,17.00
2022-10-01T07:55:30.268Z,16.40
2022-10-01T07:59:32.882Z,16.10
2022-10-01T08:03:35.395Z,13.70
2022-10-01T08:07:37.415Z,12.10
2022-10-01T08:11:39.393Z,13.50
2022-10-01T08:15:49.999Z,13.20
2022-10-01T08:19:52.141Z,13.70
2022-10-01T08:23:54.233Z,13.40
2022-10-01T08:27:56.561Z,11.40
2022-10-01T08:31:58.590Z,12.30
2022-10-01T08:36:02.511Z,12.80
2022-10-01T08:40:05.590Z,10.60
2022-10-01T08:44:17.792Z,10.90
2022-10-01T08:48:41.934Z,11.20
2022-10-01T08:52:53.584Z,11.80
2022-10-01T08:57:00.663Z,20.00
2022-10-01T09:01:04.711Z,12.60
2022-10-01T09:05:18.287Z,31.90
2022-10-01T09:09:40.538Z,11.20
2022-10-01T09:14:24.736Z,10.10
2022-10-01T10:41:48.804Z,12.60
2022-10-01T10:46:04.173Z,12.10
2022-10-01T10:50:41.123Z,14.20
2022-10-01T10:54:51.307Z,11.20
2022-10-01T10:59:10.225Z,12.90
2022-10-01T11:03:54.529Z,12.20
2022-10-01T11:08:19.997Z,11.80
2022-10-01T11:12:48.352Z,10.90
2022-10-01T11:17:12.722Z,27.00
2022-10-01T11:21:27.017Z,21.50
2022-10-01T11:26:07.613Z,12.40
2022-10-01T11:30:44.789Z,10.60
2022-10-01T11:35:36.817Z,17.40
2022-10-01T11:44:28.446Z,10.40
2022-10-01T11:48:57.127Z,10.60
2022-10-01T11:53:37.687Z,9.70
2022-10-01T11:57:59.730Z,9.60
2022-10-01T12:02:11.194Z,10.40
2022-10-01T12:06:37.637Z,10.80
2022-10-01T12:10:46.949Z,9.70
2022-10-01T12:14:56.682Z,11.30
2022-10-01T12:19:17.144Z,11.30
2022-10-01T12:23:30.586Z,11.50
2022-10-01T12:27:55.971Z,11.80
2022-10-01T12:32:37.364Z,10.10
2022-10-01T12:37:11.998Z,10.40
2022-10-01T12:41:24.138Z,10.60
2022-10-01T12:45:48.474Z,10.80
2022-10-01T12:50:36.860Z,10.90
2022-10-01T12:54:59.978Z,11.10
2022-10-01T12:59:11.802Z,11.80
2022-10-01T13:03:43.163Z,10.90
2022-10-01T13:08:03.997Z,11.70
2022-10-01T13:12:45.378Z,11.40
2022-10-01T13:17:18.935Z,12.30
2022-10-01T13:21:45.889Z,11.50
2022-10-01T13:26:10.765Z,12.90
2022-10-01T13:30:53.078Z,12.90
2022-10-01T13:34:57.115Z,14.00
2022-10-01T13:38:59.609Z,14.40
2022-10-01T13:43:23.402Z,14.00
2022-10-01T13:47:30.560Z,14.10
2022-10-01T13:51:38.029Z,14.30
2022-10-01T13:55:46.344Z,14.40
2022-10-01T13:59:59.822Z,14.90
2022-10-01T14:04:40.104Z,13.90
2022-10-01T14:09:10.848Z,14.10
2022-10-01T14:13:33.392Z,14.30
2022-10-01T14:17:41.502Z,16.40
2022-10-01T14:22:07.655Z,13.40
2022-10-01T14:26:37.553Z,12.20
2022-10-01T14:35:01.052Z,15.80
2022-10-01T14:39:21.576Z,20.50
2022-10-01T14:43:28.147Z,15.10
2022-10-01T14:47:39.360Z,14.90
2022-10-01T14:51:57.822Z,15.70
2022-10-01T14:56:05.347Z,15.70
2022-10-01T15:00:19.633Z,15.30
2022-10-01T15:04:22.089Z,15.70
2022-10-01T15:08:40.989Z,15.30
2022-10-01T15:12:55.519Z,16.10
2022-10-01T15:17:19.219Z,16.80
2022-10-01T15:21:48.324Z,15.50
2022-10-01T15:25:56.057Z,13.20
2022-10-01T15:30:00.115Z,14.30
2022-10-01T15:34:14.899Z,18.60
2022-10-01T15:38:17.791Z,31.70
2022-10-01T15:42:26.202Z,41.20
2022-10-01T15:50:36.986Z,29.40
2022-10-01T15:54:41.406Z,26.20
2022-10-01T15:58:55.099Z,30.00
2022-10-01T16:02:58.398Z,34.50
2022-10-01T16:07:00.760Z,27.40
2022-10-01T16:11:16.514Z,23.40
2022-10-01T16:15:30.944Z,23.10
2022-10-01T16:19:33.906Z,17.80
2022-10-01T16:23:41.922Z,19.30
2022-10-01T16:27:50.110Z,17.70
2022-10-01T16:31:53.199Z,20.50
2022-10-01T16:36:10.019Z,20.70
2022-10-01T16:40:16.257Z,20.20
2022-10-01T16:44:19.524Z,22.60
2022-10-01T16:48:24.838Z,21.50
2022-10-01T16:52:26.890Z,39.20
2022-10-01T16:56:29.255Z,35.30
2022-10-01T17:00:31.929Z,56.70
2022-10-01T17:04:36.211Z,71.40
2022-10-01T17:08:38.206Z,68.40
2022-10-01T17:12:41.668Z,59.00
2022-10-01T17:16:46.906Z,65.90
2022-10-01T17:20:54.185Z,64.50
2022-10-01T17:24:56.232Z,55.10
2022-10-01T17:28:58.183Z,33.10
2022-10-01T17:33:01.509Z,28.60
2022-10-01T17:37:03.543Z,38.10
2022-10-01T17:41:08.633Z,49.30
2022-10-01T17:45:16.540Z,38.60
2022-10-01T17:49:18.928Z,30.30
2022-10-01T17:53:21.271Z,28.10
2022-10-01T17:57:27.066Z,38.70
2022-10-01T18:01:29.804Z,33.20
2022-10-01T18:05:32.370Z,29.70
2022-10-01T18:09:37.084Z,27.30
2022-10-01T18:13:39.721Z,31.10
2022-10-01T18:17:47.952Z,30.70
2022-10-01T18:21:53.307Z,36.00
2022-10-01T18:25:57.787Z,29.90
2022-10-01T18:30:00.486Z,35.70
2022-10-01T18:34:09.716Z,36.90
2022-10-01T18:38:25.569Z,41.10
2022-10-01T18:42:33.363Z,39.20
2022-10-01T18:46:48.316Z,40.80
2022-10-01T18:50:50.319Z,36.80
2022-10-01T18:54:58.681Z,35.50
2022-10-01T19:04:02.804Z,42.10
2022-10-01T19:08:50.017Z,39.50
2022-10-01T19:13:16.230Z,30.60
2022-10-01T19:17:27.366Z,25.40
2022-10-01T19:22:09.931Z,25.40
2022-10-01T19:26:40.995Z,23.50
2022-10-01T19:35:46.082Z,34.10
2022-10-01T19:40:01.981Z,43.30
2022-10-01T19:44:31.583Z,46.10
2022-10-01T19:49:07.478Z,42.50
2022-10-01T19:54:14.918Z,41.30
2022-10-01T19:58:21.148Z,56.20
2022-10-01T20:02:55.518Z,71.60
2022-10-01T20:07:10.142Z,59.30
2022-10-01T20:11:27.056Z,57.20
2022-10-01T20:15:49.440Z,43.90
2022-10-01T20:26:18.260Z,36.80
2022-10-01T20:36:18.142Z,37.10
2022-10-01T20:46:20.216Z,33.60
2022-10-01T20:56:31.633Z,29.60
2022-10-01T21:00:58.417Z,29.70
2022-10-01T21:05:24.235Z,29.00
2022-10-01T21:09:50.547Z,27.50
2022-10-01T21:14:19.625Z,27.40
2022-10-01T21:18:48.058Z,29.00
2022-10-01T21:23:38.463Z,31.10
2022-10-01T21:27:46.895Z,40.90
2022-10-01T21:32:39.374Z,40.70
2022-10-01T21:36:58.059Z,44.60
2022-10-01T21:48:30.580Z,23.70
2022-10-01T21:53:16.119Z,22.80
2022-10-01T22:03:46.153Z,21.00
2022-10-01T22:09:11.389Z,21.70
2022-10-01T22:23:50.778Z,21.50
2022-10-01T22:28:38.475Z,19.30
2022-10-01T22:32:56.079Z,18.90
2022-10-01T22:37:43.296Z,16.60
2022-10-01T22:42:15.242Z,15.00
2022-10-01T22:47:19.546Z,13.80
2022-10-01T22:51:56.814Z,13.00
2022-10-01T22:56:03.021Z,11.70
2022-10-01T23:00:22.398Z,9.40
2022-10-01T23:04:49.227Z,9.80
2022-10-01T23:09:04.547Z,8.80
2022-10-01T23:13:57.336Z,9.70
2022-10-01T23:18:41.682Z,9.60
2022-10-01T23:22:56.575Z,8.90
2022-10-01T23:28:36.017Z,9.10
2022-10-01T23:33:25.777Z,8.30
2022-10-01T23:37:43.449Z,8.00
2022-10-01T23:42:32.811Z,7.70
2022-10-01T23:46:52.978Z,7.60
2022-10-01T23:51:46.118Z,7.20
2022-10-01T23:56:50.323Z,6.90
